Time;durP1;ratioP1;P1;durP2;ratioP2;P2;SDS_P1;SDS_P2;PMS_P1;PMS_P2;Temp;Humidity;BMP_temperature;BMP_pressure;BME280_temperature;BME280_humidity;BME280_pressure;Samples;Min_cycle;Max_cycle;Signal;HPM_P1;HPM_P2
2022/04/27 00:01:47;;;;;;;4.35;1.10;;;;;;;7.74;60.60;101210.47;5006935;28;20049;-42
2022/04/27 00:04:14;;;;;;;2.65;2.03;;;;;;;7.71;60.76;101211.28;5007682;28;20145;-40
2022/04/27 00:06:41;;;;;;;1.95;0.73;;;;;;;7.69;60.02;101208.66;5006782;28;20120;-41
2022/04/27 00:09:08;;;;;;;3.38;1.27;;;;;;;7.69;59.58;101203.50;5007958;28;20088;-43
2022/04/27 00:11:34;;;;;;;2.42;0.80;;;;;;;7.70;59.56;101205.22;5005542;28;20058;-45
2022/04/27 00:14:03;;;;;;;2.65;0.95;;;;;;;7.69;60.58;101202.59;5007812;28;20391;-45
2022/04/27 00:16:30;;;;;;;2.90;1.13;;;;;;;7.66;60.34;101203.41;5006796;28;20517;-43
2022/04/27 00:18:57;;;;;;;3.10;0.90;;;;;;;7.67;60.21;101207.72;5006721;28;20145;-42
2022/04/27 00:21:23;;;;;;;4.45;1.17;;;;;;;7.64;61.15;101219.66;5009605;28;20096;-45
2022/04/27 00:23:50;;;;;;;8.93;1.38;;;;;;;7.59;60.83;101209.22;5007708;28;20049;-41
2022/04/27 00:26:17;;;;;;;5.22;0.70;;;;;;;7.55;59.55;101209.97;5008372;28;20054;-42
2022/04/27 00:28:43;;;;;;;4.35;1.38;;;;;;;7.51;60.85;101208.13;5006964;28;20092;-42
2022/04/27 00:31:10;;;;;;;4.47;0.98;;;;;;;7.46;60.62;101206.28;5006019;28;20049;-43
2022/04/27 00:33:37;;;;;;;5.47;1.10;;;;;;;7.44;61.03;101209.66;5007273;28;20117;-44
2022/04/27 00:36:04;;;;;;;1.95;0.90;;;;;;;7.40;59.98;101213.84;5008273;28;20050;-41
2022/04/27 00:38:30;;;;;;;3.42;1.00;;;;;;;7.33;61.64;101207.63;5008645;28;20049;-42
2022/04/27 00:40:57;;;;;;;3.17;0.85;;;;;;;7.29;60.96;101207.50;5006678;28;20045;-39
2022/04/27 00:43:41;;;;;;;3.42;0.80;;;;;;;7.15;60.37;101202.81;5006334;28;20135;-41
2022/04/27 00:46:10;;;;;;;4.85;1.13;;;;;;;7.11;61.72;101213.84;5007761;28;20100;-42
2022/04/27 00:48:40;;;;;;;4.35;1.08;;;;;;;7.03;60.87;101205.03;5007190;28;20056;-40
2022/04/27 00:51:15;;;;;;;2.08;1.00;;;;;;;6.94;60.85;101206.50;5007639;28;20046;-41
2022/04/27 00:53:43;;;;;;;2.75;0.90;;;;;;;6.86;62.08;101195.06;5005996;28;20113;-42
2022/04/27 00:56:11;;;;;;;3.65;1.08;;;;;;;6.79;61.47;101200.88;4987684;28;20050;-43
2022/04/27 00:58:43;;;;;;;6.85;1.52;;;;;;;6.73;60.96;101196.41;5003362;28;20104;-43
2022/04/27 01:01:17;;;;;;;3.13;1.00;;;;;;;6.65;61.81;101192.69;5009189;28;20038;-42
2022/04/27 01:03:44;;;;;;;4.28;1.13;;;;;;;6.59;62.41;101192.50;5007566;28;20046;-42
2022/04/27 01:06:11;;;;;;;2.90;1.10;;;;;;;6.53;62.66;101198.31;5007427;28;20045;-41
2022/04/27 01:08:39;;;;;;;4.43;1.42;;;;;;;6.47;61.90;101192.97;5009022;28;20405;-43
2022/04/27 01:11:06;;;;;;;3.20;1.08;;;;;;;6.41;61.99;101193.63;5007857;28;20048;-41
2022/04/27 01:13:33;;;;;;;4.88;1.00;;;;;;;6.36;62.46;101190.94;5004334;28;20067;-45
2022/04/27 01:16:01;;;;;;;3.53;0.93;;;;;;;6.32;61.94;101194.22;5008452;28;20049;-42
2022/04/27 01:18:28;;;;;;;4.10;0.98;;;;;;;6.27;62.87;101191.50;5009230;28;20049;-45
2022/04/27 01:20:55;;;;;;;6.50;0.85;;;;;;;6.23;62.85;101193.91;5008311;28;20046;-43
2022/04/27 01:23:21;;;;;;;3.75;1.05;;;;;;;6.17;62.01;101194.56;5006890;28;20053;-44
2022/04/27 01:26:05;;;;;;;4.53;1.33;;;;;;;6.09;63.14;101198.59;5004628;28;20133;-41
2022/04/27 01:28:32;;;;;;;6.53;1.25;;;;;;;6.07;62.44;101202.78;5004233;28;20054;-44
2022/04/27 01:31:01;;;;;;;5.05;1.60;;;;;;;6.02;63.16;101202.63;5010876;28;20116;-41
2022/04/27 01:33:30;;;;;;;3.15;0.90;;;;;;;5.98;62.29;101198.19;5005006;28;20096;-39
2022/04/27 01:35:58;;;;;;;5.25;1.15;;;;;;;5.92;62.80;101191.13;5003397;28;20557;-41
2022/04/27 01:38:25;;;;;;;7.18;1.20;;;;;;;5.87;62.80;101193.53;5007347;28;20073;-41
2022/04/27 01:40:54;;;;;;;4.80;1.02;;;;;;;5.84;63.00;101198.56;5004341;28;20088;-39
2022/04/27 01:43:24;;;;;;;6.43;1.25;;;;;;;5.81;62.76;101195.03;5005210;28;20124;-41
2022/04/27 01:45:51;;;;;;;3.13;1.00;;;;;;;5.77;63.74;101199.16;5022242;28;20049;-42
2022/04/27 01:48:18;;;;;;;9.55;1.88;;;;;;;5.75;63.69;101196.53;5004625;28;20046;-43
2022/04/27 01:50:45;;;;;;;6.85;1.25;;;;;;;5.75;63.67;101203.38;4986247;28;20077;-40
2022/04/27 01:55:58;;;;;;;4.63;1.48;;;;;;;5.69;62.96;101200.59;5004998;28;20064;-48
2022/04/27 01:58:25;;;;;;;5.10;1.15;;;;;;;5.66;63.52;101202.25;5006600;28;20047;-41
2022/04/27 02:00:52;;;;;;;2.63;1.08;;;;;;;5.64;62.75;101214.16;5001889;28;20112;-41
2022/04/27 02:03:20;;;;;;;5.47;1.50;;;;;;;5.60;63.82;101217.44;5007092;28;20482;-39
2022/04/27 02:05:48;;;;;;;5.88;1.27;;;;;;;5.56;63.30;101220.72;5006686;28;20124;-42
2022/04/27 02:08:16;;;;;;;3.03;1.30;;;;;;;5.52;63.53;101218.84;5005975;28;20049;-44
2022/04/27 02:10:43;;;;;;;2.90;1.13;;;;;;;5.49;63.35;101223.88;5006213;28;20100;-40
2022/04/27 02:13:10;;;;;;;3.47;1.02;;;;;;;5.45;63.22;101207.47;5008693;28;20108;-43
2022/04/27 02:15:37;;;;;;;3.22;1.30;;;;;;;5.45;63.28;101219.44;4992443;28;20053;-40
2022/04/27 02:18:06;;;;;;;3.47;1.25;;;;;;;5.43;64.36;101219.38;5009733;28;20054;-38
2022/04/27 02:20:33;;;;;;;6.18;1.10;;;;;;;5.41;63.44;101215.91;5002794;28;20089;-45
2022/04/27 02:23:00;;;;;;;4.40;1.50;;;;;;;5.40;64.27;101214.13;5010684;28;20049;-41
2022/04/27 02:25:26;;;;;;;3.70;1.55;;;;;;;5.38;63.19;101215.78;5005530;28;20107;-39
2022/04/27 02:27:53;;;;;;;5.22;1.40;;;;;;;5.36;63.47;101219.97;5010268;28;20057;-39
2022/04/27 02:30:19;;;;;;;5.68;1.30;;;;;;;5.34;63.95;101221.63;5007431;28;20127;-40
2022/04/27 02:32:46;;;;;;;7.07;1.05;;;;;;;5.32;63.80;101225.81;5009551;28;20123;-37
2022/04/27 02:35:14;;;;;;;4.90;1.13;;;;;;;5.29;63.68;101229.13;5009209;28;20054;-39
2022/04/27 02:37:41;;;;;;;4.78;1.20;;;;;;;5.26;64.07;101226.44;5005941;28;20046;-38
2022/04/27 02:40:09;;;;;;;5.97;1.00;;;;;;;5.23;64.11;101218.63;5020179;28;20119;-45
2022/04/27 02:42:36;;;;;;;4.85;1.25;;;;;;;5.20;63.84;101232.22;5007948;28;20045;-42
2022/04/27 02:45:03;;;;;;;5.60;1.15;;;;;;;5.19;63.91;101232.16;5009255;28;20543;-38
2022/04/27 02:47:30;;;;;;;2.90;0.98;;;;;;;5.14;64.01;101232.88;5010607;28;20041;-42
2022/04/27 02:52:46;;;;;;;3.97;1.83;;;;;;;5.08;64.09;101235.22;5021093;28;20050;-41
2022/04/27 02:55:12;;;;;;;4.93;1.33;;;;;;;5.09;64.20;101234.38;5006330;28;20555;-42
2022/04/27 02:57:39;;;;;;;9.10;1.73;;;;;;;5.07;64.61;101230.88;5008417;28;20432;-40
2022/04/27 03:00:06;;;;;;;3.90;1.85;;;;;;;5.08;64.49;101237.78;5006665;28;20058;-44
2022/04/27 03:02:33;;;;;;;5.85;1.42;;;;;;;5.07;64.62;101240.28;5007901;28;20108;-40
2022/04/27 03:05:00;;;;;;;4.65;1.63;;;;;;;5.07;64.53;101248.84;5009892;28;20065;-39
2022/04/27 03:07:28;;;;;;;5.13;1.65;;;;;;;5.09;64.94;101236.94;5006943;28;20058;-39
2022/04/27 03:09:55;;;;;;;7.10;1.45;;;;;;;5.07;64.38;101245.41;5010025;28;20523;-41
2022/04/27 03:12:22;;;;;;;4.90;1.77;;;;;;;5.02;64.48;101245.22;5006159;28;20049;-42
2022/04/27 03:14:49;;;;;;;3.92;1.27;;;;;;;4.99;64.63;101245.09;5008188;28;20128;-38
2022/04/27 03:17:15;;;;;;;4.18;1.63;;;;;;;4.98;64.23;101243.34;5005763;28;20107;-41
2022/04/27 03:19:42;;;;;;;6.88;2.30;;;;;;;4.97;64.73;101249.31;5006984;28;20050;-43
2022/04/27 03:22:09;;;;;;;4.90;1.55;;;;;;;4.99;64.23;101245.09;5007961;28;20505;-40
2022/04/27 03:24:35;;;;;;;4.35;1.50;;;;;;;5.01;64.21;101246.06;5008482;28;20049;-40
2022/04/27 03:27:03;;;;;;;4.10;1.65;;;;;;;5.00;64.08;101244.31;5004697;28;20103;-40
2022/04/27 03:29:30;;;;;;;6.53;1.80;;;;;;;5.01;64.20;101246.06;5008492;28;20054;-38
2022/04/27 03:31:57;;;;;;;4.80;1.95;;;;;;;5.04;64.18;101250.44;5009846;28;20057;-47
2022/04/27 03:34:24;;;;;;;4.30;2.03;;;;;;;5.06;64.37;101254.81;5018542;28;20468;-42
2022/04/27 03:36:50;;;;;;;9.27;2.80;;;;;;;5.08;64.47;101253.19;5009295;28;20434;-41
2022/04/27 03:39:17;;;;;;;4.90;2.03;;;;;;;5.11;63.86;101247.28;5006455;28;20049;-44
2022/04/27 03:42:04;;;;;;;6.97;2.00;;;;;;;5.13;63.94;101251.66;5006955;28;20050;-42
2022/04/27 03:44:30;;;;;;;3.45;1.52;;;;;;;5.16;63.82;101239.78;5006604;28;20041;-42
2022/04/27 03:46:57;;;;;;;7.65;1.95;;;;;;;5.19;64.50;101245.88;5007340;28;20058;-40
2022/04/27 03:49:24;;;;;;;5.70;1.95;;;;;;;5.21;64.61;101243.38;5008485;28;20466;-42
2022/04/27 03:51:51;;;;;;;5.88;2.03;;;;;;;5.24;64.64;101243.50;5006231;28;20041;-38
2022/04/27 03:54:17;;;;;;;5.72;2.00;;;;;;;5.25;63.53;101245.25;5004870;28;20053;-45
2022/04/27 03:56:44;;;;;;;5.30;2.03;;;;;;;5.28;64.25;101240.25;5005578;28;20109;-44
2022/04/27 03:59:10;;;;;;;7.88;1.98;;;;;;;5.31;64.29;101248.06;5007514;28;20046;-43
2022/04/27 04:01:37;;;;;;;5.43;3.30;;;;;;;5.33;63.62;101241.28;5009173;28;20323;-40
2022/04/27 04:04:04;;;;;;;4.30;1.73;;;;;;;5.36;64.06;101249.13;5007070;28;20485;-41
2022/04/27 04:06:31;;;;;;;7.45;1.55;;;;;;;5.38;63.80;101252.59;5007926;28;20075;-39
2022/04/27 04:08:57;;;;;;;5.80;1.65;;;;;;;5.39;63.79;101253.50;5005658;28;20046;-40
2022/04/27 04:11:24;;;;;;;6.03;1.80;;;;;;;5.39;63.58;101251.81;5004508;28;20477;-39
2022/04/27 04:13:50;;;;;;;6.65;1.67;;;;;;;5.40;64.23;101256.13;5008153;28;20045;-41
2022/04/27 04:16:17;;;;;;;5.25;1.98;;;;;;;5.40;63.73;101256.13;5002884;28;20053;-43
2022/04/27 04:18:44;;;;;;;8.48;1.98;;;;;;;5.42;64.27;101255.28;5007399;28;20046;-42
2022/04/27 04:21:10;;;;;;;5.05;2.00;;;;;;;5.43;64.57;101255.34;5006780;28;20053;-41
2022/04/27 04:23:37;;;;;;;5.97;1.60;;;;;;;5.46;64.73;101257.16;5005326;28;20042;-40
2022/04/27 04:28:50;;;;;;;9.02;2.25;;;;;;;5.48;64.68;101253.84;5018326;28;20058;-43
2022/04/27 04:31:17;;;;;;;5.38;2.35;;;;;;;5.51;64.11;101260.78;5005657;28;20578;-47
2022/04/27 04:33:44;;;;;;;5.70;1.80;;;;;;;5.53;64.58;101266.84;5008449;28;20049;-41
2022/04/27 04:36:11;;;;;;;5.93;1.80;;;;;;;5.55;64.51;101265.22;5003557;28;20049;-42
2022/04/27 04:38:39;;;;;;;6.03;2.75;;;;;;;5.52;64.76;101265.09;5002746;28;20938;-41
2022/04/27 04:41:06;;;;;;;6.05;1.55;;;;;;;5.50;63.98;101264.16;5007751;28;20532;-40
2022/04/27 04:43:32;;;;;;;4.03;1.92;;;;;;;5.51;64.17;101263.38;5006456;28;20096;-45
2022/04/27 04:46:00;;;;;;;6.63;1.65;;;;;;;5.53;64.92;101272.00;5005144;28;20481;-44
2022/04/27 04:48:26;;;;;;;3.55;1.63;;;;;;;5.55;64.51;101267.81;5001570;28;20053;-40
2022/04/27 04:50:53;;;;;;;5.65;1.92;;;;;;;5.57;64.15;101273.84;5008278;28;20062;-37
2022/04/27 04:53:20;;;;;;;5.28;2.03;;;;;;;5.60;64.22;101268.84;5006895;28;20103;-42
2022/04/27 04:55:47;;;;;;;6.88;1.90;;;;;;;5.63;64.93;101274.09;5002023;28;20046;-39
2022/04/27 04:58:13;;;;;;;6.03;2.08;;;;;;;5.66;63.97;101281.94;5006724;28;20068;-40
2022/04/27 05:00:40;;;;;;;6.25;1.63;;;;;;;5.65;64.39;101272.44;5002587;28;20064;-42
2022/04/27 05:03:07;;;;;;;7.40;1.98;;;;;;;5.65;64.61;101277.59;5004279;28;20076;-43
2022/04/27 05:05:38;;;;;;;7.75;2.20;;;;;;;5.69;64.18;101282.84;5007545;28;20045;-41
2022/04/27 05:08:06;;;;;;;10.20;2.13;;;;;;;5.69;64.15;101281.16;5003246;28;20105;-39
2022/04/27 05:10:33;;;;;;;5.60;1.88;;;;;;;5.71;64.01;101286.38;5007873;28;20042;-41
2022/04/27 05:12:59;;;;;;;6.50;1.92;;;;;;;5.73;64.39;101288.19;5007768;28;20095;-41
2022/04/27 05:15:26;;;;;;;5.80;1.80;;;;;;;5.76;64.62;101288.28;5008311;28;20109;-40
2022/04/27 05:17:53;;;;;;;8.32;2.13;;;;;;;5.79;64.58;101290.09;5009232;28;20107;-42
2022/04/27 05:20:19;;;;;;;7.60;2.20;;;;;;;5.82;64.88;101300.50;5007432;28;20050;-40
2022/04/27 05:23:03;;;;;;;10.00;2.00;;;;;;;5.78;65.55;101298.63;5023469;28;20049;-42
2022/04/27 05:25:30;;;;;;;8.55;2.38;;;;;;;5.77;64.48;101302.00;5025485;28;20689;-43
2022/04/27 05:27:57;;;;;;;4.65;1.90;;;;;;;5.81;65.29;101303.00;5025811;28;20049;-39
2022/04/27 05:33:10;;;;;;;8.95;2.65;;;;;;;5.87;65.47;101308.34;5038672;28;20457;-45
2022/04/27 05:35:40;;;;;;;10.00;3.03;;;;;;;5.92;64.74;101312.00;5027055;28;20425;-40
2022/04/27 05:38:08;;;;;;;6.70;2.05;;;;;;;5.96;65.51;101315.56;5027037;28;20447;-46
2022/04/27 05:40:36;;;;;;;4.57;1.67;;;;;;;6.01;64.23;101316.63;5026324;28;20173;-42
2022/04/27 05:43:05;;;;;;;6.93;2.30;;;;;;;6.04;64.38;101322.75;5029762;28;20049;-42
2022/04/27 05:45:32;;;;;;;4.80;1.75;;;;;;;6.09;65.52;101325.50;5028833;28;20050;-43
2022/04/27 05:47:59;;;;;;;6.28;3.13;;;;;;;6.13;64.40;101327.38;5028811;28;20409;-41
2022/04/27 05:50:26;;;;;;;7.03;2.20;;;;;;;6.19;64.99;101330.97;5028366;28;20052;-40
2022/04/27 05:52:58;;;;;;;5.68;1.73;;;;;;;6.23;64.90;101328.59;5031334;28;20041;-42
2022/04/27 05:55:25;;;;;;;9.05;2.53;;;;;;;6.29;65.70;101325.34;5031804;28;20046;-44
2022/04/27 05:57:51;;;;;;;8.43;2.22;;;;;;;6.32;65.49;101328.03;5031901;28;20041;-39
2022/04/27 06:00:19;;;;;;;5.55;2.53;;;;;;;6.36;65.36;101335.03;5030710;28;20103;-42
2022/04/27 06:02:46;;;;;;;7.88;2.67;;;;;;;6.39;65.77;101334.28;5031827;28;20107;-40
2022/04/27 06:05:13;;;;;;;8.25;2.55;;;;;;;6.42;64.60;101331.81;5031825;28;20045;-41
2022/04/27 06:07:39;;;;;;;10.57;2.38;;;;;;;6.46;64.70;101335.34;5029969;28;20053;-43
2022/04/27 06:10:08;;;;;;;10.77;2.50;;;;;;;6.46;64.55;101330.22;5029360;28;20050;-42
2022/04/27 06:12:36;;;;;;;8.07;2.63;;;;;;;6.47;65.63;101331.94;5029577;28;20049;-43
2022/04/27 06:15:04;;;;;;;7.93;2.80;;;;;;;6.50;65.66;101332.06;5030201;28;20484;-41
2022/04/27 06:17:31;;;;;;;8.90;2.55;;;;;;;6.54;65.44;101333.91;5031175;28;20559;-41
2022/04/27 06:19:58;;;;;;;6.80;2.53;;;;;;;6.59;64.28;101331.50;5028715;28;20390;-42
2022/04/27 06:22:24;;;;;;;9.13;2.20;;;;;;;6.61;65.69;101335.88;5029709;28;20045;-40
2022/04/27 06:24:51;;;;;;;7.70;2.38;;;;;;;6.63;65.13;101334.25;5016904;28;20042;-40
2022/04/27 06:27:18;;;;;;;6.90;2.55;;;;;;;6.62;65.05;101335.06;5015480;28;20111;-42
2022/04/27 06:29:44;;;;;;;6.22;2.40;;;;;;;6.65;64.79;101337.75;5029721;28;20049;-45
2022/04/27 06:32:11;;;;;;;5.53;2.13;;;;;;;6.66;64.99;101336.91;5030776;28;20102;-41
2022/04/27 06:34:38;;;;;;;5.38;2.33;;;;;;;6.70;64.49;101337.91;5028044;28;20100;-43
2022/04/27 06:37:05;;;;;;;10.20;2.35;;;;;;;6.74;65.07;101337.19;5028924;28;20045;-41
2022/04/27 06:39:31;;;;;;;6.05;2.17;;;;;;;6.78;65.40;101343.31;5028765;28;20115;-44
2022/04/27 06:41:58;;;;;;;6.28;2.15;;;;;;;6.81;65.21;101348.56;5029460;28;20103;-40
2022/04/27 06:44:24;;;;;;;9.63;2.28;;;;;;;6.88;64.13;101347.94;5030494;28;20095;-44
2022/04/27 06:46:51;;;;;;;8.13;2.05;;;;;;;6.91;64.46;101353.22;5029110;28;20049;-44
2022/04/27 06:49:18;;;;;;;5.53;1.95;;;;;;;6.98;65.08;101354.28;5028643;28;20266;-40
2022/04/27 06:51:44;;;;;;;10.98;2.47;;;;;;;7.05;63.76;101357.94;5029124;28;20110;-43
2022/04/27 06:54:11;;;;;;;9.35;2.63;;;;;;;7.10;64.83;101346.09;5029315;28;20072;-39
2022/04/27 06:56:37;;;;;;;6.28;2.03;;;;;;;7.17;63.84;101358.31;5028286;28;20523;-38
2022/04/27 06:59:04;;;;;;;8.55;2.15;;;;;;;7.24;63.46;101358.53;5029507;28;20110;-40
2022/04/27 07:01:31;;;;;;;8.55;2.03;;;;;;;7.30;63.54;101353.59;5028119;28;20049;-44
2022/04/27 07:04:06;;;;;;;10.30;2.17;;;;;;;7.34;64.68;101365.75;5028123;28;20053;-40
2022/04/27 07:06:34;;;;;;;6.53;1.88;;;;;;;7.41;63.93;101370.28;5027981;28;20044;-40
2022/04/27 07:09:00;;;;;;;5.00;2.08;;;;;;;7.51;63.25;101367.97;5024495;28;20111;-44
2022/04/27 07:11:27;;;;;;;5.75;1.88;;;;;;;7.57;64.35;101378.47;5017888;28;20049;-39
2022/04/27 07:13:55;;;;;;;6.38;1.77;;;;;;;7.64;63.10;101370.13;5027664;28;20123;-41
2022/04/27 07:16:21;;;;;;;4.82;1.25;;;;;;;7.66;63.13;101377.88;5027422;28;20049;-41
2022/04/27 07:18:50;;;;;;;4.85;1.65;;;;;;;7.65;62.54;101379.59;5028177;28;20097;-40
2022/04/27 07:21:16;;;;;;;6.13;1.58;;;;;;;7.67;62.80;101385.66;5023061;28;20037;-42
2022/04/27 07:23:43;;;;;;;5.78;1.58;;;;;;;7.70;61.04;101388.34;5025109;28;20088;-43
2022/04/27 07:26:09;;;;;;;6.15;1.80;;;;;;;7.74;62.42;101388.44;5028157;28;20049;-41
2022/04/27 07:28:36;;;;;;;4.50;1.42;;;;;;;7.79;62.18;101394.59;5027539;28;20501;-42
2022/04/27 07:31:03;;;;;;;5.13;1.60;;;;;;;7.83;62.35;101401.59;5027864;28;20037;-42
2022/04/27 07:33:30;;;;;;;5.93;1.40;;;;;;;7.86;61.16;101399.13;5025677;28;20053;-43
2022/04/27 07:35:57;;;;;;;5.57;1.85;;;;;;;7.88;61.46;101404.31;5024952;28;20060;-43
2022/04/27 07:38:24;;;;;;;6.65;1.52;;;;;;;7.93;61.66;101408.78;5029818;28;20080;-45
2022/04/27 07:40:50;;;;;;;5.78;1.58;;;;;;;7.95;60.82;101401.09;5026920;28;20111;-46
2022/04/27 07:43:18;;;;;;;3.15;1.60;;;;;;;7.98;61.45;101407.22;5028266;28;20054;-39
2022/04/27 07:45:45;;;;;;;4.72;2.42;;;;;;;8.02;61.26;101408.22;5030310;28;20049;-41
2022/04/27 07:48:11;;;;;;;3.38;1.33;;;;;;;8.05;60.21;101412.56;5025962;28;20053;-41
2022/04/27 07:50:39;;;;;;;5.30;1.60;;;;;;;8.11;60.62;101407.59;5031601;28;20128;-43
2022/04/27 07:53:05;;;;;;;4.75;1.50;;;;;;;8.17;60.23;101406.91;5027307;28;20057;-43
2022/04/27 07:55:32;;;;;;;6.43;1.42;;;;;;;8.21;59.91;101412.19;5027541;28;20095;-42
2022/04/27 07:57:59;;;;;;;6.03;1.40;;;;;;;8.25;60.16;101414.88;5025739;28;20057;-42
2022/04/27 08:00:26;;;;;;;3.25;1.52;;;;;;;8.29;60.17;101414.13;5024890;28;20588;-42
2022/04/27 08:02:53;;;;;;;4.57;1.40;;;;;;;8.31;60.79;101420.22;5026841;28;20103;-43
2022/04/27 08:05:19;;;;;;;4.85;1.45;;;;;;;8.30;60.50;101428.78;5028621;28;20049;-43
2022/04/27 08:07:46;;;;;;;6.63;1.42;;;;;;;8.32;60.26;101422.84;5027062;28;20680;-40
2022/04/27 08:10:16;;;;;;;9.43;1.50;;;;;;;8.39;59.53;101436.78;5027748;28;20049;-42
2022/04/27 08:12:46;;;;;;;5.43;1.70;;;;;;;8.40;60.04;101430.78;5028896;28;20077;-42
2022/04/27 08:15:14;;;;;;;3.63;1.20;;;;;;;8.44;59.82;101427.47;5026230;28;20049;-44
2022/04/27 08:23:22;;;;;;;7.88;1.35;;;;;;;8.57;59.72;101440.75;5069595;28;20105;-42
2022/04/27 08:26:08;;;;;;;6.57;1.90;;;;;;;8.64;60.09;101444.41;5070035;28;20411;-44
2022/04/27 08:28:37;;;;;;;4.82;1.83;;;;;;;8.69;60.11;101438.53;5084661;28;20044;-42
2022/04/27 08:31:04;;;;;;;4.70;1.27;;;;;;;8.76;60.12;101443.84;5066167;28;20044;-41
2022/04/27 08:33:31;;;;;;;6.72;1.80;;;;;;;8.74;59.50;101447.28;5085965;28;20441;-45
2022/04/27 08:35:59;;;;;;;6.53;1.58;;;;;;;8.76;58.40;101454.19;5081704;28;20064;-43
2022/04/27 08:38:45;;;;;;;4.72;1.90;;;;;;;8.80;59.14;101451.72;5083728;28;20144;-42
2022/04/27 08:41:12;;;;;;;6.65;2.00;;;;;;;8.82;59.29;101442.28;5085567;28;20048;-43
2022/04/27 08:43:39;;;;;;;7.43;2.08;;;;;;;8.89;59.41;101445.94;5063129;28;20074;-44
2022/04/27 08:46:08;;;;;;;6.05;2.00;;;;;;;8.94;58.58;101448.63;5065079;28;20884;-42
2022/04/27 08:48:35;;;;;;;5.07;1.30;;;;;;;8.98;58.62;101450.47;5083059;28;20036;-43
2022/04/27 08:51:03;;;;;;;5.88;1.50;;;;;;;9.00;57.79;101454.84;5083801;28;20568;-41
2022/04/27 08:53:30;;;;;;;5.63;1.50;;;;;;;9.06;58.21;101453.25;5083073;28;20086;-46
2022/04/27 08:55:57;;;;;;;5.65;1.85;;;;;;;9.14;58.21;101456.91;5061601;28;20057;-43
2022/04/27 08:58:25;;;;;;;7.60;1.77;;;;;;;9.17;58.56;101446.66;5096537;28;20499;-43
2022/04/27 09:01:07;;;;;;;3.95;2.30;;;;;;;9.24;57.49;101453.75;5102682;28;20048;-45
2022/04/27 09:03:36;;;;;;;6.75;1.95;;;;;;;9.28;57.56;101459.00;5101799;28;20078;-47
2022/04/27 09:06:06;;;;;;;9.88;2.60;;;;;;;9.31;56.97;101461.63;5106883;27;20052;-45
2022/04/27 09:13:56;;;;;;;7.93;2.20;;;;;;;9.49;56.57;101472.44;5053649;27;20135;-44
2022/04/27 09:16:24;;;;;;;;;;;;;;;9.46;56.20;101462.00;5008372;28;20452;-47
2022/04/27 09:24:53;;;;;;;5.57;1.95;;;;;;;9.70;55.49;101468.66;5095011;27;20135;-43
2022/04/27 09:27:22;;;;;;;4.07;1.70;;;;;;;9.81;55.89;101470.59;5062536;28;20110;-43
2022/04/27 09:32:31;;;;;;;6.28;1.70;;;;;;;9.86;54.92;101466.41;5121375;27;20351;-42
2022/04/27 09:35:02;;;;;;;5.18;1.58;;;;;;;9.93;55.10;101470.00;5098246;28;20043;-43
2022/04/27 09:37:30;;;;;;;5.47;1.35;;;;;;;9.97;54.48;101471.84;5079627;28;20040;-46
2022/04/27 09:40:02;;;;;;;6.43;1.60;;;;;;;9.93;54.08;101470.88;5077106;28;20044;-49
2022/04/27 09:42:30;;;;;;;5.95;1.50;;;;;;;9.98;54.47;101470.97;5048946;28;20098;-62
2022/04/27 09:45:14;;;;;;;5.22;1.20;;;;;;;10.01;54.46;101474.53;5052248;28;20045;-43
2022/04/27 09:47:47;;;;;;;5.78;1.55;;;;;;;10.08;54.35;101475.53;5075449;28;20110;-44
2022/04/27 09:50:15;;;;;;;3.13;1.52;;;;;;;10.12;54.34;101477.34;5078143;28;20094;-42
2022/04/27 09:52:44;;;;;;;8.93;1.42;;;;;;;10.15;54.32;101473.94;5072942;28;20048;-42
2022/04/27 09:55:11;;;;;;;6.53;1.58;;;;;;;10.15;53.73;101479.13;5047113;28;20068;-44
2022/04/27 09:57:42;;;;;;;7.03;1.40;;;;;;;10.16;53.67;101480.88;5082275;28;20048;-41
2022/04/27 10:00:12;;;;;;;3.88;1.33;;;;;;;10.18;53.69;101476.63;5063405;28;20103;-40
2022/04/27 10:02:43;;;;;;;7.20;1.17;;;;;;;10.15;53.07;101480.00;5063876;28;20044;-43
2022/04/27 10:05:10;;;;;;;7.95;1.67;;;;;;;10.15;52.99;101486.91;5066672;28;20615;-43
2022/04/27 10:07:37;;;;;;;4.68;1.70;;;;;;;10.12;52.95;101473.88;5072300;28;20036;-45
2022/04/27 10:10:05;;;;;;;6.82;2.92;;;;;;;10.16;52.53;101480.88;5070632;28;21184;-42
2022/04/27 10:12:36;;;;;;;3.58;1.60;;;;;;;10.21;52.91;101481.88;5055260;28;20048;-44
2022/04/27 10:15:03;;;;;;;6.50;1.90;;;;;;;10.22;52.20;101478.44;5068094;28;20405;-41
2022/04/27 10:17:29;;;;;;;8.00;1.45;;;;;;;10.22;52.50;101483.59;5066631;28;20102;-41
2022/04/27 10:19:56;;;;;;;4.05;1.48;;;;;;;10.22;52.08;101487.91;5089461;28;20432;-46
2022/04/27 10:22:30;;;;;;;7.63;1.50;;;;;;;10.27;51.81;101481.13;5074359;28;20138;-44
2022/04/27 10:25:04;;;;;;;7.63;1.52;;;;;;;10.31;52.17;101472.59;5062015;28;20110;-45
2022/04/27 10:30:11;;;;;;;4.05;1.60;;;;;;;10.41;51.51;101479.69;5070842;27;20407;-44
2022/04/27 10:37:59;;;;;;;5.30;2.08;;;;;;;10.86;49.44;101476.28;5051251;27;20405;-41
2022/04/27 10:45:45;;;;;;;6.95;2.03;;;;;;;10.91;50.83;101472.06;5080033;27;20144;-42
2022/04/27 10:51:07;;;;;;;7.28;2.55;;;;;;;10.92;50.13;101466.88;5102772;27;20561;-48
2022/04/27 10:53:43;;;;;;;6.32;2.70;;;;;;;10.96;50.02;101472.13;5065595;28;20048;-41
2022/04/27 10:56:30;;;;;;;7.32;2.72;;;;;;;11.02;50.14;101475.69;5071088;28;20052;-41
2022/04/27 10:58:57;;;;;;;7.97;2.95;;;;;;;11.08;50.21;101476.69;5086685;28;20056;-47
2022/04/27 11:01:25;;;;;;;4.15;2.50;;;;;;;11.15;50.52;101478.53;5088358;28;20052;-45
2022/04/27 11:03:56;;;;;;;5.38;2.60;;;;;;;11.15;49.26;101478.53;5084590;28;20036;-42
2022/04/27 11:06:23;;;;;;;4.82;2.38;;;;;;;11.19;49.46;101481.19;5088966;28;20048;-42
2022/04/27 11:09:30;;;;;;;5.70;2.30;;;;;;;11.23;50.02;101476.06;5067789;28;20056;-47
2022/04/27 11:14:37;;;;;;;5.80;1.20;;;;;;;11.31;48.55;101490.94;5092357;27;20139;-42
2022/04/27 11:17:05;;;;;;;5.70;1.67;;;;;;;11.31;49.10;101485.75;5060060;28;20041;-43
2022/04/27 11:19:35;;;;;;;5.38;1.60;;;;;;;11.32;48.37;101482.28;5052428;28;20111;-46
2022/04/27 11:32:31;;;;;;;3.80;1.48;;;;;;;11.61;47.77;101472.34;5123229;27;20120;-41
2022/04/27 11:34:58;;;;;;;3.38;1.42;;;;;;;11.57;47.93;101466.25;5063802;28;20049;-46
2022/04/27 11:37:25;;;;;;;3.85;1.88;;;;;;;11.65;46.98;101474.19;5062584;28;20049;-45
2022/04/27 11:40:12;;;;;;;5.45;1.50;;;;;;;11.62;47.09;101469.78;5074390;28;20038;-46
2022/04/27 11:42:48;;;;;;;5.18;2.17;;;;;;;11.65;45.97;101479.38;5083816;28;20422;-42
2022/04/27 11:45:25;;;;;;;3.80;1.45;;;;;;;11.70;45.66;101477.72;5082324;28;20094;-49
2022/04/27 11:48:03;;;;;;;4.35;1.85;;;;;;;11.73;46.59;101477.78;5085095;28;20036;-42
2022/04/27 11:50:32;;;;;;;5.50;1.67;;;;;;;11.85;46.94;101473.63;5082906;28;20503;-42
2022/04/27 11:53:02;;;;;;;4.50;1.63;;;;;;;11.88;46.95;101471.91;5085295;28;20097;-44
2022/04/27 11:55:29;;;;;;;4.32;2.47;;;;;;;11.92;46.69;101473.72;5081371;28;20449;-44
2022/04/27 11:57:56;;;;;;;5.70;1.58;;;;;;;11.99;47.83;101479.84;5082453;28;20047;-46
2022/04/27 12:00:27;;;;;;;3.40;1.63;;;;;;;12.02;46.03;101479.91;5082505;28;20048;-42
2022/04/27 12:03:03;;;;;;;7.30;1.58;;;;;;;11.97;47.06;101476.38;5084809;28;20101;-41
2022/04/27 12:05:35;;;;;;;5.10;1.98;;;;;;;11.96;46.28;101478.09;5083887;28;20068;-44
2022/04/27 12:08:07;;;;;;;7.32;1.67;;;;;;;11.98;46.80;101478.13;5083141;28;20053;-44
2022/04/27 12:10:39;;;;;;;6.57;1.48;;;;;;;12.02;45.83;101479.06;5083605;28;20044;-43
2022/04/27 12:13:06;;;;;;;6.82;1.83;;;;;;;11.93;45.33;101477.19;5070309;28;20048;-47
2022/04/27 12:15:33;;;;;;;7.18;2.13;;;;;;;11.94;45.94;101476.34;5062830;28;20102;-43
2022/04/27 12:18:01;;;;;;;5.28;2.25;;;;;;;12.03;45.47;101476.44;5064715;28;20102;-45
2022/04/27 12:28:20;;;;;;;9.43;1.88;;;;;;;12.36;44.88;101463.94;5017758;27;20783;-43
2022/04/27 12:30:51;;;;;;;6.68;1.73;;;;;;;12.44;44.35;101471.84;5014719;28;20050;-43
2022/04/27 12:33:22;;;;;;;4.07;1.77;;;;;;;12.55;44.47;101470.25;5019419;28;20132;-44
2022/04/27 12:57:23;;;;;;;8.35;2.08;;;;;;;13.07;42.80;101443.03;5043807;28;20389;-47
2022/04/27 13:05:08;;;;;;;8.10;2.10;;;;;;;12.95;43.64;101442.94;5060946;28;21176;-45
2022/04/27 13:07:35;;;;;;;6.63;3.50;;;;;;;12.97;43.06;101438.63;5021767;27;20510;-43
2022/04/27 13:12:51;;;;;;;5.10;3.45;;;;;;;12.96;44.39;101437.75;4996236;28;20054;-41
2022/04/27 13:15:18;;;;;;;6.57;1.98;;;;;;;13.00;44.13;101436.03;5000915;28;20626;-41